createdAt,value
2022-12-31T00:02:09.506Z,7.28
2022-12-31T00:04:58.553Z,7.27
2022-12-31T00:07:55.285Z,7.23
2022-12-31T00:10:46.758Z,7.23
2022-12-31T00:13:40.958Z,7.30
2022-12-31T00:16:41.408Z,7.24
2022-12-31T00:19:56.436Z,7.23
2022-12-31T00:22:50.687Z,7.27
2022-12-31T00:25:48.216Z,7.22
2022-12-31T00:28:36.801Z,7.30
2022-12-31T00:31:31.811Z,7.31
2022-12-31T00:34:18.625Z,7.30
2022-12-31T00:37:05.527Z,7.31
2022-12-31T00:40:00.324Z,7.29
2022-12-31T00:42:53.125Z,7.29
2022-12-31T00:45:42.985Z,7.31
2022-12-31T00:48:34.424Z,7.31
2022-12-31T00:51:23.551Z,7.34
2022-12-31T00:54:13.212Z,7.34
2022-12-31T00:57:03.190Z,7.33
2022-12-31T00:59:52.529Z,7.34
2022-12-31T01:03:02.093Z,7.29
2022-12-31T01:05:50.351Z,7.31
2022-12-31T01:08:37.662Z,7.34
2022-12-31T01:11:31.158Z,7.34
2022-12-31T01:14:19.535Z,7.31
2022-12-31T01:17:06.432Z,7.33
2022-12-31T01:19:53.523Z,7.34
2022-12-31T01:22:40.333Z,7.33
2022-12-31T01:25:27.174Z,7.34
2022-12-31T01:28:14.012Z,7.36
2022-12-31T01:31:12.055Z,7.36
2022-12-31T01:34:00.377Z,7.36
2022-12-31T01:36:47.279Z,7.38
2022-12-31T01:39:34.233Z,7.37
2022-12-31T01:42:22.551Z,7.38
2022-12-31T01:45:12.580Z,7.37
2022-12-31T01:47:59.733Z,7.38
2022-12-31T01:50:46.870Z,7.39
2022-12-31T01:53:40.721Z,7.38
2022-12-31T01:56:30.489Z,7.38
2022-12-31T01:59:18.613Z,7.39
2022-12-31T02:02:08.637Z,7.39
2022-12-31T02:04:57.596Z,7.40
2022-12-31T02:07:44.724Z,7.41
2022-12-31T02:10:37.779Z,7.41
2022-12-31T02:13:24.680Z,7.41
2022-12-31T02:16:28.590Z,7.40
2022-12-31T02:19:34.733Z,7.41
2022-12-31T02:22:39.966Z,7.43
2022-12-31T02:25:35.083Z,7.42
2022-12-31T02:28:50.081Z,7.42
2022-12-31T02:31:48.951Z,7.42
2022-12-31T02:34:41.135Z,7.44
2022-12-31T02:37:29.069Z,7.44
2022-12-31T02:40:19.408Z,7.43
2022-12-31T02:43:06.411Z,7.44
2022-12-31T02:46:27.269Z,7.43
2022-12-31T02:49:21.533Z,7.45
2022-12-31T02:52:31.567Z,7.46
2022-12-31T02:55:30.716Z,7.44
2022-12-31T02:58:52.243Z,7.46
2022-12-31T03:02:00.334Z,7.43
2022-12-31T03:04:55.499Z,7.43
2022-12-31T03:07:43.173Z,7.44
2022-12-31T03:10:29.986Z,7.45
2022-12-31T03:13:16.843Z,7.44
2022-12-31T03:16:06.795Z,7.45
2022-12-31T03:19:12.330Z,7.44
2022-12-31T03:22:17.737Z,7.45
2022-12-31T03:25:30.125Z,7.44
2022-12-31T03:28:18.783Z,7.44
2022-12-31T03:31:06.069Z,7.44
2022-12-31T03:33:53.559Z,7.43
2022-12-31T03:36:40.383Z,7.45
2022-12-31T03:39:29.323Z,7.43
2022-12-31T03:42:16.099Z,7.46
2022-12-31T03:45:03.334Z,7.45
2022-12-31T03:47:50.934Z,7.42
2022-12-31T03:50:37.813Z,7.47
2022-12-31T03:53:24.685Z,7.47
2022-12-31T03:56:11.545Z,7.48
2022-12-31T03:58:58.374Z,7.48
2022-12-31T04:01:50.865Z,7.49
2022-12-31T04:04:37.782Z,7.50
2022-12-31T04:07:24.639Z,7.50
2022-12-31T04:10:13.610Z,7.47
2022-12-31T04:13:02.449Z,7.46
2022-12-31T04:15:51.003Z,7.48
2022-12-31T04:18:37.913Z,7.48
2022-12-31T04:21:26.823Z,7.48
2022-12-31T04:24:15.644Z,7.52
2022-12-31T04:27:10.439Z,7.54
2022-12-31T04:29:57.318Z,7.54
2022-12-31T04:32:47.142Z,7.54
2022-12-31T04:35:34.035Z,7.55
2022-12-31T04:38:20.833Z,7.54
2022-12-31T04:41:22.885Z,7.57
2022-12-31T04:44:21.731Z,7.51
2022-12-31T04:47:16.291Z,7.48
2022-12-31T04:50:13.659Z,7.52
2022-12-31T04:53:00.513Z,7.57
2022-12-31T04:55:47.409Z,7.56
2022-12-31T04:58:34.471Z,7.59
2022-12-31T05:01:22.016Z,7.60
2022-12-31T05:04:14.663Z,7.60
2022-12-31T05:07:04.073Z,7.60
2022-12-31T05:09:51.029Z,7.61
2022-12-31T05:12:37.895Z,7.56
2022-12-31T05:15:29.407Z,7.59
2022-12-31T05:18:16.317Z,7.64
2022-12-31T05:21:03.543Z,7.60
2022-12-31T05:23:52.674Z,7.63
2022-12-31T05:26:39.477Z,7.62
2022-12-31T05:29:27.551Z,7.62
2022-12-31T05:32:17.339Z,7.62
2022-12-31T05:35:18.449Z,7.63
2022-12-31T05:38:05.441Z,7.62
2022-12-31T05:41:03.651Z,7.63
2022-12-31T05:43:50.505Z,7.61
2022-12-31T05:46:37.341Z,7.62
2022-12-31T05:49:24.182Z,7.62
2022-12-31T05:52:14.328Z,7.58
2022-12-31T05:55:01.182Z,7.58
2022-12-31T05:57:48.047Z,7.61
2022-12-31T06:00:36.018Z,7.63
2022-12-31T06:03:22.917Z,7.64
2022-12-31T06:06:19.758Z,7.61
2022-12-31T06:09:06.573Z,7.65
2022-12-31T06:11:53.479Z,7.67
2022-12-31T06:14:45.834Z,7.66
2022-12-31T06:17:32.888Z,7.67
2022-12-31T06:20:21.231Z,7.68
2022-12-31T06:23:10.407Z,7.70
2022-12-31T06:25:58.763Z,7.70
2022-12-31T06:28:45.604Z,7.70
2022-12-31T06:31:41.313Z,7.71
2022-12-31T06:34:28.126Z,7.70
2022-12-31T06:37:17.301Z,7.72
2022-12-31T06:40:06.661Z,7.73
2022-12-31T06:42:59.869Z,7.71
2022-12-31T06:45:47.073Z,7.74
2022-12-31T06:48:34.175Z,7.75
2022-12-31T06:51:21.692Z,7.75
2022-12-31T06:54:08.542Z,7.75
2022-12-31T06:56:55.513Z,7.75
2022-12-31T06:59:43.141Z,7.79
2022-12-31T07:02:41.630Z,7.79
2022-12-31T07:05:34.592Z,7.81
2022-12-31T07:08:47.097Z,7.83
2022-12-31T07:11:39.804Z,7.77
2022-12-31T07:14:50.028Z,7.85
2022-12-31T07:17:52.094Z,7.85
2022-12-31T07:20:46.333Z,7.85
2022-12-31T07:23:42.686Z,7.84
2022-12-31T07:26:42.936Z,7.89
2022-12-31T07:29:51.738Z,7.89
2022-12-31T07:32:57.496Z,7.91
2022-12-31T07:36:14.730Z,7.93
2022-12-31T07:39:18.514Z,7.91
2022-12-31T07:42:15.531Z,7.90
2022-12-31T07:45:20.926Z,7.94
2022-12-31T07:48:40.093Z,7.91
2022-12-31T07:51:32.057Z,7.97
2022-12-31T07:54:39.368Z,7.98
2022-12-31T07:57:34.632Z,8.00
2022-12-31T08:00:27.866Z,7.99
2022-12-31T08:03:52.453Z,8.02
2022-12-31T08:07:06.535Z,8.04
2022-12-31T08:10:19.435Z,8.02
2022-12-31T08:16:45.676Z,8.03
2022-12-31T08:19:57.468Z,8.06
2022-12-31T08:23:11.396Z,8.09
2022-12-31T08:26:31.700Z,8.11
2022-12-31T08:29:39.502Z,8.12
2022-12-31T08:33:08.182Z,8.10
2022-12-31T08:36:19.529Z,8.09
2022-12-31T08:39:16.372Z,8.14
2022-12-31T08:42:27.839Z,8.17
2022-12-31T08:45:41.963Z,8.17
2022-12-31T08:48:43.485Z,8.18
2022-12-31T08:51:33.949Z,8.13
2022-12-31T08:57:56.078Z,8.26
2022-12-31T09:00:52.382Z,8.25
2022-12-31T09:03:45.871Z,8.32
2022-12-31T09:06:43.326Z,8.33
2022-12-31T09:09:59.897Z,8.34
2022-12-31T09:13:01.689Z,8.40
2022-12-31T09:15:52.539Z,8.41
2022-12-31T09:19:02.993Z,8.45
2022-12-31T09:21:56.540Z,8.51
2022-12-31T09:28:57.549Z,8.59
2022-12-31T09:32:05.473Z,8.59
2022-12-31T09:35:22.319Z,8.56
2022-12-31T09:38:36.404Z,8.68
2022-12-31T09:41:58.473Z,8.74
2022-12-31T09:45:06.927Z,8.77
2022-12-31T09:48:08.938Z,8.79
2022-12-31T09:51:31.669Z,8.83
2022-12-31T09:54:30.617Z,8.87
2022-12-31T09:57:31.161Z,8.90
2022-12-31T10:00:31.546Z,8.89
2022-12-31T10:03:56.352Z,8.97
2022-12-31T10:07:06.886Z,8.90
2022-12-31T10:10:15.799Z,9.02
2022-12-31T10:13:55.355Z,9.01
2022-12-31T10:17:03.404Z,9.06
2022-12-31T10:20:26.724Z,9.09
2022-12-31T10:23:49.328Z,9.10
2022-12-31T10:27:01.087Z,9.14
2022-12-31T10:30:23.044Z,9.15
2022-12-31T10:33:33.082Z,9.13
2022-12-31T10:37:11.708Z,9.17
2022-12-31T10:40:23.158Z,9.23
2022-12-31T10:43:24.941Z,9.25
2022-12-31T10:46:39.470Z,9.28
2022-12-31T10:49:32.697Z,9.30
2022-12-31T10:52:29.842Z,9.32
2022-12-31T10:59:23.533Z,9.38
2022-12-31T11:03:29.706Z,9.40
2022-12-31T11:07:01.807Z,9.48
2022-12-31T11:10:36.721Z,9.58
2022-12-31T11:14:02.058Z,9.61
2022-12-31T11:16:53.784Z,9.62
2022-12-31T11:20:23.882Z,9.65
2022-12-31T11:24:26.348Z,9.65
2022-12-31T11:27:57.642Z,9.70
2022-12-31T11:31:36.478Z,9.73
2022-12-31T11:34:24.365Z,9.74
2022-12-31T11:37:41.536Z,9.76
2022-12-31T11:40:55.216Z,9.74
2022-12-31T11:44:29.879Z,9.82
2022-12-31T11:48:28.487Z,9.83
2022-12-31T11:52:11.002Z,9.89
2022-12-31T11:55:15.893Z,9.91
2022-12-31T11:58:31.225Z,9.92
2022-12-31T12:01:50.286Z,9.97
2022-12-31T12:04:37.101Z,10.02
2022-12-31T12:07:24.479Z,10.00
2022-12-31T12:10:59.459Z,10.07
2022-12-31T12:13:53.321Z,10.04
2022-12-31T12:16:44.511Z,10.13
2022-12-31T12:19:47.132Z,10.17
2022-12-31T12:22:49.528Z,10.20
2022-12-31T12:25:49.650Z,10.21
2022-12-31T12:28:49.417Z,10.29
2022-12-31T12:31:42.480Z,10.25
2022-12-31T12:34:45.910Z,10.29
2022-12-31T12:37:59.197Z,10.39
2022-12-31T12:41:10.793Z,10.40
2022-12-31T12:44:11.774Z,10.38
2022-12-31T12:47:01.930Z,10.48
2022-12-31T12:50:03.040Z,10.53
2022-12-31T12:52:59.156Z,10.63
2022-12-31T12:56:49.150Z,10.72
2022-12-31T13:03:29.081Z,10.98
2022-12-31T13:15:10.193Z,11.27
2022-12-31T13:22:13.901Z,11.34
2022-12-31T13:25:27.746Z,11.42
2022-12-31T13:28:41.786Z,11.49
2022-12-31T13:35:40.686Z,11.59
2022-12-31T13:42:13.568Z,11.64
2022-12-31T13:49:43.243Z,11.75
2022-12-31T13:57:10.975Z,11.85
2022-12-31T14:01:03.887Z,11.87
2022-12-31T14:04:37.960Z,11.88
2022-12-31T14:08:47.799Z,11.85
2022-12-31T14:26:35.561Z,12.01
2022-12-31T14:29:45.992Z,12.01
2022-12-31T14:33:27.278Z,11.98
2022-12-31T14:36:52.561Z,11.98
2022-12-31T14:44:28.042Z,12.08
2022-12-31T14:58:09.738Z,12.10
2022-12-31T15:01:44.814Z,12.11
2022-12-31T15:05:32.256Z,12.11
2022-12-31T15:13:17.080Z,12.12
2022-12-31T15:37:13.289Z,12.02
2022-12-31T15:41:11.187Z,12.03
2022-12-31T15:48:40.931Z,12.08
2022-12-31T15:52:11.348Z,12.10
2022-12-31T16:06:55.899Z,12.00
2022-12-31T16:10:04.334Z,11.98
2022-12-31T16:13:45.256Z,11.98
2022-12-31T16:20:02.951Z,11.98
2022-12-31T16:23:46.170Z,12.01
2022-12-31T16:26:50.572Z,11.96
2022-12-31T16:29:38.344Z,11.96
2022-12-31T16:32:47.049Z,11.87
2022-12-31T16:35:46.435Z,11.90
2022-12-31T16:38:36.979Z,11.88
2022-12-31T16:41:54.819Z,11.82
2022-12-31T16:44:49.499Z,11.78
2022-12-31T16:47:43.180Z,11.82
2022-12-31T16:53:42.579Z,11.77
2022-12-31T16:56:39.676Z,11.76
2022-12-31T16:59:47.973Z,11.77
2022-12-31T17:03:06.817Z,11.74
2022-12-31T17:09:16.684Z,11.70
2022-12-31T17:12:19.292Z,11.64
2022-12-31T17:15:09.247Z,11.68
2022-12-31T17:18:01.185Z,11.67
2022-12-31T17:20:59.973Z,11.63
2022-12-31T17:24:11.710Z,11.63
2022-12-31T17:27:42.188Z,11.54
2022-12-31T17:30:46.878Z,11.59
2022-12-31T17:34:00.976Z,11.54
2022-12-31T17:37:06.668Z,11.52
2022-12-31T17:40:50.442Z,11.52
2022-12-31T17:44:13.109Z,11.47
2022-12-31T17:54:56.046Z,11.47
2022-12-31T17:59:34.383Z,11.37
2022-12-31T18:01:50.878Z,11.34
2022-12-31T18:04:52.249Z,11.34
2022-12-31T18:13:03.467Z,11.37
2022-12-31T18:24:47.209Z,11.23
2022-12-31T18:28:25.766Z,11.19
2022-12-31T18:36:07.614Z,11.20
2022-12-31T18:40:25.514Z,11.12
2022-12-31T18:43:43.061Z,11.18
2022-12-31T18:54:14.627Z,11.08
2022-12-31T19:01:38.108Z,11.06
2022-12-31T19:05:07.162Z,10.98
2022-12-31T19:15:20.319Z,10.90
2022-12-31T19:30:12.544Z,10.83
2022-12-31T19:32:05.447Z,10.90
2022-12-31T19:39:04.635Z,10.78
2022-12-31T19:53:47.294Z,10.76
2022-12-31T19:57:04.112Z,10.72
2022-12-31T20:00:34.990Z,10.67
2022-12-31T20:03:40.616Z,10.64
2022-12-31T20:18:42.751Z,10.59
2022-12-31T20:29:15.521Z,10.53
2022-12-31T20:36:19.768Z,10.52
2022-12-31T20:56:18.680Z,10.39
2022-12-31T21:04:18.708Z,10.31
2022-12-31T21:07:44.160Z,10.30
2022-12-31T21:11:16.910Z,10.36
2022-12-31T21:14:23.353Z,10.30
2022-12-31T21:17:47.515Z,10.33
2022-12-31T22:05:53.277Z,10.03
2022-12-31T22:30:28.531Z,9.96
2022-12-31T22:36:53.729Z,9.95
2022-12-31T22:40:09.002Z,9.97
2022-12-31T22:46:57.320Z,9.83
2022-12-31T22:49:55.113Z,9.83
2022-12-31T22:56:24.431Z,9.78
2022-12-31T22:59:30.702Z,9.78
2022-12-31T23:02:41.901Z,9.77
2022-12-31T23:05:30.867Z,9.80
2022-12-31T23:08:23.089Z,9.83
2022-12-31T23:11:15.410Z,9.84
2022-12-31T23:14:52.290Z,9.81
2022-12-31T23:18:14.217Z,9.89
2022-12-31T23:22:22.507Z,9.87
2022-12-31T23:25:22.560Z,9.88
2022-12-31T23:28:58.934Z,9.89
2022-12-31T23:36:08.136Z,9.93
2022-12-31T23:38:59.032Z,9.96
2022-12-31T23:45:54.756Z,9.89
2022-12-31T23:48:51.324Z,9.93
2022-12-31T23:59:54.481Z,9.84
